Time;durP1;ratioP1;P1;durP2;ratioP2;P2;SDS_P1;SDS_P2;PMS_P1;PMS_P2;Temp;Humidity;BMP_temperature;BMP_pressure;BME280_temperature;BME280_humidity;BME280_pressure;Samples;Min_cycle;Max_cycle;Signal;HPM_P1;HPM_P2
2021/01/07 00:02:09;;;;;;;20.05;11.95;;;3.10;65.40;;;;;;5012389;28;20476;-73
2021/01/07 00:04:35;;;;;;;21.63;13.30;;;3.10;65.60;;;;;;5011321;28;20478;-72
2021/01/07 00:07:00;;;;;;;23.37;12.43;;;3.10;65.90;;;;;;5012135;28;20462;-72
2021/01/07 00:09:25;;;;;;;25.70;13.60;;;3.10;66.40;;;;;;5012095;28;20393;-72
2021/01/07 00:11:51;;;;;;;27.77;14.60;;;3.00;67.10;;;;;;5012532;28;20411;-72
2021/01/07 00:14:18;;;;;;;26.42;13.65;;;2.90;68.60;;;;;;5012453;28;20893;-72
2021/01/07 00:16:43;;;;;;;21.58;12.80;;;3.00;68.50;;;;;;5011986;28;20429;-71
2021/01/07 00:19:09;;;;;;;30.00;15.02;;;3.10;67.90;;;;;;5012200;28;20780;-72
2021/01/07 00:21:35;;;;;;;25.87;13.93;;;3.10;67.60;;;;;;5012222;28;20854;-73
2021/01/07 00:24:00;;;;;;;28.37;14.70;;;3.10;68.80;;;;;;5012327;28;20389;-74
2021/01/07 00:26:26;;;;;;;24.25;13.10;;;3.20;68.10;;;;;;5012037;28;20397;-72
2021/01/07 00:28:52;;;;;;;23.65;13.18;;;3.30;66.60;;;;;;5012035;28;20393;-72
2021/01/07 00:31:18;;;;;;;22.53;12.43;;;3.20;66.20;;;;;;5011557;28;20396;-73
2021/01/07 00:33:43;;;;;;;20.35;12.10;;;3.20;67.20;;;;;;5011264;28;20407;-73
2021/01/07 00:36:09;;;;;;;24.87;12.47;;;3.30;66.10;;;;;;5012547;28;20381;-72
2021/01/07 00:38:35;;;;;;;30.50;13.50;;;3.30;65.20;;;;;;5012013;28;20755;-72
2021/01/07 00:41:00;;;;;;;21.63;13.32;;;3.30;65.10;;;;;;5011950;28;20397;-72
2021/01/07 00:43:26;;;;;;;25.83;13.25;;;3.20;66.20;;;;;;5011877;28;20392;-73
2021/01/07 00:45:52;;;;;;;20.40;12.67;;;3.30;65.80;;;;;;5011648;28;20423;-73
2021/01/07 00:48:18;;;;;;;20.30;11.80;;;3.40;64.60;;;;;;5011726;28;20542;-73
2021/01/07 00:50:44;;;;;;;23.83;12.20;;;3.40;63.80;;;;;;5011457;28;20400;-72
2021/01/07 00:53:10;;;;;;;22.37;12.43;;;3.50;62.90;;;;;;5012571;28;20457;-73
2021/01/07 00:55:35;;;;;;;19.37;12.07;;;3.40;62.90;;;;;;5013888;28;20388;-73
2021/01/07 00:58:02;;;;;;;23.63;12.20;;;3.40;64.10;;;;;;5014322;28;20433;-73
2021/01/07 01:00:27;;;;;;;26.33;14.45;;;3.40;64.40;;;;;;5013819;28;20388;-74
2021/01/07 01:02:53;;;;;;;22.97;12.37;;;3.30;65.50;;;;;;5015713;28;20428;-71
2021/01/07 01:05:18;;;;;;;19.63;12.23;;;3.30;65.90;;;;;;5015460;28;20394;-73
2021/01/07 01:07:44;;;;;;;20.15;12.63;;;3.50;63.90;;;;;;5016202;28;20423;-74
2021/01/07 01:10:11;;;;;;;20.30;11.77;;;3.50;63.70;;;;;;5014852;28;20393;-75
2021/01/07 01:12:37;;;;;;;22.88;12.30;;;3.60;62.70;;;;;;5015086;28;20385;-75
2021/01/07 01:15:14;;;;;;;20.42;12.82;;;3.50;62.50;;;;;;5015944;28;20380;-72
2021/01/07 01:17:41;;;;;;;21.83;12.70;;;3.50;63.70;;;;;;5015572;28;20443;-74
2021/01/07 01:20:14;;;;;;;30.20;15.10;;;3.50;64.00;;;;;;5015801;28;20389;-75
2021/01/07 01:22:40;;;;;;;25.23;13.10;;;3.40;63.90;;;;;;5016308;28;20415;-73
2021/01/07 01:25:08;;;;;;;25.35;13.10;;;3.40;64.70;;;;;;5015465;28;20424;-72
2021/01/07 01:27:35;;;;;;;21.00;13.50;;;3.40;66.50;;;;;;5015255;28;20770;-73
2021/01/07 01:30:02;;;;;;;26.35;13.52;;;3.30;66.20;;;;;;5014913;28;20404;-74
2021/01/07 01:32:27;;;;;;;24.63;13.20;;;3.30;66.80;;;;;;5015165;28;20424;-72
2021/01/07 01:34:54;;;;;;;22.63;14.10;;;3.40;65.20;;;;;;5013210;28;20955;-73
2021/01/07 01:37:19;;;;;;;23.67;13.10;;;3.40;65.90;;;;;;5013396;28;20395;-74
2021/01/07 01:39:45;;;;;;;22.73;14.13;;;3.50;66.00;;;;;;5012603;28;20385;-73
2021/01/07 01:42:11;;;;;;;23.45;14.35;;;3.40;64.90;;;;;;5012726;28;20396;-74
2021/01/07 01:44:37;;;;;;;26.45;14.40;;;3.40;65.50;;;;;;5012864;28;20440;-74
2021/01/07 01:47:02;;;;;;;26.87;13.70;;;3.40;66.10;;;;;;5012069;28;20451;-72
2021/01/07 01:49:28;;;;;;;27.57;15.47;;;3.50;66.10;;;;;;5011450;28;20392;-75
2021/01/07 01:51:54;;;;;;;27.43;14.43;;;3.50;65.50;;;;;;5012351;28;20386;-74
2021/01/07 01:54:20;;;;;;;26.17;14.18;;;3.40;66.90;;;;;;5012033;28;20392;-74
2021/01/07 01:56:47;;;;;;;26.03;15.00;;;3.40;66.30;;;;;;5013196;28;20385;-73
2021/01/07 01:59:13;;;;;;;31.80;15.65;;;3.30;67.10;;;;;;5012696;28;20457;-73
2021/01/07 02:01:40;;;;;;;32.28;15.88;;;3.40;67.40;;;;;;5012641;28;20389;-73
2021/01/07 02:04:06;;;;;;;31.88;15.85;;;3.40;66.70;;;;;;5012654;28;20566;-72
2021/01/07 02:06:35;;;;;;;30.17;16.30;;;3.40;66.50;;;;;;5011980;28;20446;-72
2021/01/07 02:09:04;;;;;;;28.83;16.97;;;3.50;65.50;;;;;;5011874;28;20486;-73
2021/01/07 02:11:30;;;;;;;28.05;16.15;;;3.50;66.10;;;;;;5011724;28;20885;-73
2021/01/07 02:13:56;;;;;;;30.63;16.17;;;3.50;66.30;;;;;;5012014;28;20389;-73
2021/01/07 02:16:22;;;;;;;30.75;17.45;;;3.50;65.80;;;;;;5012312;28;20403;-74
2021/01/07 02:18:48;;;;;;;30.05;17.63;;;3.40;67.60;;;;;;5012258;28;20870;-73
2021/01/07 02:21:14;;;;;;;31.38;18.13;;;3.50;65.70;;;;;;5011940;28;20904;-72
2021/01/07 02:23:50;;;;;;;32.85;18.80;;;3.50;64.50;;;;;;5012668;28;20472;-73
2021/01/07 02:26:18;;;;;;;37.80;20.27;;;3.40;67.40;;;;;;5012825;28;20465;-72
2021/01/07 02:28:43;;;;;;;35.65;19.33;;;3.30;67.60;;;;;;5012797;28;20377;-73
2021/01/07 02:31:09;;;;;;;33.30;19.73;;;3.30;68.20;;;;;;5012973;28;20373;-71
2021/01/07 02:33:34;;;;;;;37.17;20.60;;;3.40;67.30;;;;;;5011042;28;20404;-73
2021/01/07 02:36:00;;;;;;;36.47;21.50;;;3.30;68.50;;;;;;5012752;28;20851;-72
2021/01/07 02:38:26;;;;;;;33.30;19.48;;;3.20;70.10;;;;;;5013146;28;20399;-73
2021/01/07 02:40:51;;;;;;;38.85;19.98;;;3.20;70.60;;;;;;5012433;28;20443;-73
2021/01/07 02:43:17;;;;;;;33.33;19.20;;;3.30;70.00;;;;;;5011961;28;20439;-74
2021/01/07 02:45:42;;;;;;;30.87;18.43;;;3.30;69.90;;;;;;5011442;28;20388;-73
2021/01/07 02:48:08;;;;;;;33.33;18.87;;;3.40;68.20;;;;;;5011133;28;20411;-73
2021/01/07 02:50:33;;;;;;;32.45;18.52;;;3.50;66.70;;;;;;5010787;28;20743;-72
2021/01/07 02:52:59;;;;;;;35.10;20.25;;;3.50;66.50;;;;;;5009707;28;20429;-72
2021/01/07 02:55:25;;;;;;;31.20;18.50;;;3.50;66.50;;;;;;5010134;28;20483;-71
2021/01/07 02:57:50;;;;;;;34.33;19.37;;;3.50;66.80;;;;;;5009667;28;20396;-71
2021/01/07 03:00:16;;;;;;;36.20;20.90;;;3.60;65.70;;;;;;5012414;28;20389;-73
2021/01/07 03:02:41;;;;;;;33.85;18.98;;;3.50;66.80;;;;;;5012491;28;20402;-71
2021/01/07 03:05:07;;;;;;;31.65;18.42;;;3.50;67.30;;;;;;5013889;28;20414;-72
2021/01/07 03:07:33;;;;;;;32.03;17.80;;;3.50;67.30;;;;;;5013741;28;20405;-72
2021/01/07 03:09:59;;;;;;;33.90;19.10;;;3.50;67.10;;;;;;5013002;28;20400;-71
2021/01/07 03:12:24;;;;;;;35.47;19.00;;;3.50;65.10;;;;;;5012350;28;21272;-71
2021/01/07 03:14:50;;;;;;;32.60;18.83;;;3.50;66.60;;;;;;5013668;28;20393;-70
2021/01/07 03:17:15;;;;;;;32.80;18.73;;;3.50;66.50;;;;;;5013511;28;20448;-72
2021/01/07 03:19:42;;;;;;;34.20;20.50;;;3.50;66.30;;;;;;5013360;28;20420;-72
2021/01/07 03:22:08;;;;;;;31.35;19.17;;;3.40;67.40;;;;;;5013587;28;20389;-72
2021/01/07 03:24:34;;;;;;;35.80;20.15;;;3.40;67.90;;;;;;5012994;28;20407;-71
2021/01/07 03:27:00;;;;;;;32.20;18.70;;;3.40;67.30;;;;;;5014272;28;20400;-72
2021/01/07 03:29:26;;;;;;;33.38;20.02;;;3.50;66.10;;;;;;5016333;28;20797;-73
2021/01/07 03:31:52;;;;;;;37.88;20.30;;;3.50;66.70;;;;;;4999876;28;20444;-73
2021/01/07 03:34:18;;;;;;;36.33;20.88;;;3.40;67.50;;;;;;4997101;28;20390;-73
2021/01/07 03:36:44;;;;;;;37.73;20.80;;;3.40;68.60;;;;;;4997493;28;20401;-73
2021/01/07 03:39:10;;;;;;;38.53;20.53;;;3.40;67.80;;;;;;5016546;28;20411;-73
2021/01/07 03:41:36;;;;;;;37.05;21.85;;;3.50;67.20;;;;;;5015706;28;20428;-73
2021/01/07 03:44:02;;;;;;;40.03;22.17;;;3.50;67.20;;;;;;5018582;28;20421;-70
2021/01/07 03:46:28;;;;;;;36.67;20.67;;;3.50;66.50;;;;;;5014248;28;20396;-76
2021/01/07 03:48:53;;;;;;;38.85;21.20;;;3.50;67.50;;;;;;5011075;28;20405;-71
2021/01/07 03:51:19;;;;;;;39.90;21.87;;;3.40;69.40;;;;;;5010694;28;20420;-71
2021/01/07 03:53:44;;;;;;;39.83;22.60;;;3.50;66.80;;;;;;5013038;28;20405;-71
2021/01/07 03:56:10;;;;;;;38.33;21.53;;;3.60;67.10;;;;;;5011495;28;20388;-72
2021/01/07 03:58:35;;;;;;;40.23;22.23;;;3.60;66.40;;;;;;5012562;28;20415;-72
2021/01/07 04:01:03;;;;;;;37.17;22.00;;;3.60;67.60;;;;;;5012476;28;20392;-70
2021/01/07 04:03:28;;;;;;;38.67;20.95;;;3.60;67.20;;;;;;5012052;28;20393;-71
2021/01/07 04:05:54;;;;;;;39.70;22.52;;;3.60;65.50;;;;;;5012825;28;20392;-71
2021/01/07 04:08:20;;;;;;;40.03;22.67;;;3.60;66.20;;;;;;5012498;28;20540;-72
2021/01/07 04:10:45;;;;;;;40.67;23.13;;;3.50;67.20;;;;;;5009827;28;20385;-71
2021/01/07 04:13:11;;;;;;;35.70;21.70;;;3.60;67.30;;;;;;5012118;28;20901;-71
2021/01/07 04:15:36;;;;;;;39.50;22.00;;;3.60;66.90;;;;;;5012682;28;20866;-71
2021/01/07 04:18:02;;;;;;;39.47;21.88;;;3.60;65.70;;;;;;5012382;28;20885;-70
2021/01/07 04:20:27;;;;;;;36.88;22.42;;;3.60;65.60;;;;;;5012064;28;20395;-70
2021/01/07 04:22:53;;;;;;;41.17;24.20;;;3.50;66.90;;;;;;5012297;28;20874;-71
2021/01/07 04:25:18;;;;;;;38.60;23.10;;;3.50;68.00;;;;;;5011838;28;20822;-72
2021/01/07 04:27:44;;;;;;;37.47;22.13;;;3.50;67.90;;;;;;5012238;28;20905;-71
2021/01/07 04:30:10;;;;;;;38.63;22.37;;;3.60;66.50;;;;;;5011271;28;20385;-72
2021/01/07 04:32:36;;;;;;;38.22;23.05;;;3.60;66.60;;;;;;5012274;28;20385;-71
2021/01/07 04:35:03;;;;;;;43.57;23.87;;;3.60;66.90;;;;;;5011326;28;20388;-70
2021/01/07 04:37:28;;;;;;;42.40;24.80;;;3.50;67.80;;;;;;5011797;28;20480;-72
2021/01/07 04:39:54;;;;;;;41.00;23.60;;;3.50;66.90;;;;;;5011046;28;20494;-72
2021/01/07 04:42:20;;;;;;;46.23;23.80;;;3.60;66.10;;;;;;5011528;28;20383;-71
2021/01/07 04:44:46;;;;;;;46.83;24.30;;;3.60;66.00;;;;;;5011780;28;20439;-72
2021/01/07 04:47:12;;;;;;;40.53;23.75;;;3.60;65.30;;;;;;5011095;28;20984;-72
2021/01/07 04:49:38;;;;;;;46.38;22.92;;;3.60;66.30;;;;;;5011364;28;20388;-72
2021/01/07 04:52:04;;;;;;;39.40;23.60;;;3.50;67.50;;;;;;5011791;28;20858;-71
2021/01/07 04:54:29;;;;;;;43.22;24.70;;;3.60;68.70;;;;;;5011601;28;20392;-71
2021/01/07 04:56:55;;;;;;;45.27;25.13;;;3.60;67.20;;;;;;5011633;28;20424;-71
2021/01/07 04:59:20;;;;;;;38.97;24.67;;;3.60;68.50;;;;;;5011203;28;20443;-72
2021/01/07 05:01:46;;;;;;;43.70;25.37;;;3.50;68.50;;;;;;5010339;28;20487;-71
2021/01/07 05:04:14;;;;;;;43.37;26.47;;;3.50;68.60;;;;;;5010849;28;20462;-72
2021/01/07 05:06:40;;;;;;;44.30;25.73;;;3.50;70.00;;;;;;5011588;28;20512;-72
2021/01/07 05:09:06;;;;;;;45.47;27.00;;;3.60;68.50;;;;;;5010907;28;20425;-72
2021/01/07 05:11:33;;;;;;;48.58;26.25;;;3.50;70.30;;;;;;5011211;28;20381;-71
2021/01/07 05:14:06;;;;;;;46.58;27.05;;;3.40;71.40;;;;;;5011201;28;20388;-70
2021/01/07 05:16:33;;;;;;;47.13;26.98;;;3.40;72.10;;;;;;5010859;28;20404;-72
2021/01/07 05:19:02;;;;;;;47.95;28.00;;;3.40;71.70;;;;;;5011221;28;20464;-72
2021/01/07 05:21:28;;;;;;;50.55;27.05;;;3.40;72.30;;;;;;5009832;28;20384;-71
2021/01/07 05:23:54;;;;;;;51.83;27.20;;;3.50;72.10;;;;;;5011176;28;20408;-72
2021/01/07 05:26:21;;;;;;;53.45;28.45;;;3.50;70.60;;;;;;5009377;28;20397;-71
2021/01/07 05:28:52;;;;;;;49.80;27.48;;;3.50;71.40;;;;;;5009779;28;20413;-72
2021/01/07 05:31:22;;;;;;;51.25;28.35;;;3.50;71.80;;;;;;5010174;28;20393;-72
2021/01/07 05:33:48;;;;;;;48.67;27.95;;;3.70;70.90;;;;;;5010926;28;20439;-72
2021/01/07 05:36:20;;;;;;;47.70;27.42;;;3.70;70.20;;;;;;5010923;28;20509;-72
2021/01/07 05:38:45;;;;;;;55.17;28.05;;;3.70;70.10;;;;;;5010541;28;20740;-71
2021/01/07 05:41:14;;;;;;;49.67;28.75;;;3.60;70.50;;;;;;5010537;28;20481;-71
2021/01/07 05:43:41;;;;;;;53.10;30.08;;;3.50;72.40;;;;;;5010206;28;20421;-70
2021/01/07 05:46:07;;;;;;;53.22;28.88;;;3.60;72.30;;;;;;5010177;28;20443;-71
2021/01/07 05:48:33;;;;;;;50.13;28.85;;;3.70;69.30;;;;;;5010465;28;20432;-71
2021/01/07 05:51:03;;;;;;;58.72;30.65;;;3.80;69.10;;;;;;5010436;28;20817;-71
2021/01/07 05:53:30;;;;;;;59.72;30.90;;;3.70;70.10;;;;;;5010449;28;20399;-72
2021/01/07 05:55:55;;;;;;;59.20;30.42;;;3.80;70.40;;;;;;5009942;28;20758;-72
2021/01/07 05:58:23;;;;;;;61.60;30.67;;;3.70;69.90;;;;;;5010310;28;20464;-71
2021/01/07 06:00:54;;;;;;;58.15;29.58;;;3.70;69.90;;;;;;5010482;28;20429;-72
2021/01/07 06:03:23;;;;;;;58.53;30.27;;;3.70;69.50;;;;;;5010503;28;20390;-72
2021/01/07 06:05:51;;;;;;;55.38;29.75;;;3.70;70.90;;;;;;5010779;28;20720;-70
2021/01/07 06:08:17;;;;;;;56.63;29.08;;;3.60;71.70;;;;;;5010153;28;20726;-71
2021/01/07 06:10:46;;;;;;;55.22;30.10;;;3.60;72.00;;;;;;5009615;28;20802;-72
2021/01/07 06:13:13;;;;;;;55.80;29.55;;;3.60;71.80;;;;;;4990507;28;20383;-72
2021/01/07 06:15:39;;;;;;;51.83;26.67;;;3.60;73.40;;;;;;4991391;28;20864;-72
2021/01/07 06:18:06;;;;;;;50.35;27.20;;;3.60;72.80;;;;;;4990902;28;20383;-72
2021/01/07 06:20:34;;;;;;;49.50;26.60;;;3.60;73.20;;;;;;4990488;28;20456;-72
2021/01/07 06:23:00;;;;;;;49.38;26.38;;;3.60;71.90;;;;;;4993577;28;20409;-73
2021/01/07 06:25:26;;;;;;;48.03;26.90;;;3.60;71.40;;;;;;5010272;28;20396;-71
2021/01/07 06:27:53;;;;;;;52.67;27.70;;;3.50;73.00;;;;;;5010046;28;20433;-71
2021/01/07 06:30:18;;;;;;;52.57;28.37;;;3.40;73.50;;;;;;5006004;28;20519;-71
2021/01/07 06:33:15;;;;;;;51.40;28.57;;;3.50;73.80;;;;;;4989479;28;20390;-71
2021/01/07 06:35:42;;;;;;;49.70;27.95;;;3.50;73.20;;;;;;4990286;28;20398;-71
2021/01/07 06:38:12;;;;;;;49.45;26.95;;;3.40;73.60;;;;;;5011796;28;20407;-72
2021/01/07 06:40:42;;;;;;;50.50;27.83;;;3.50;73.90;;;;;;5013605;28;20381;-73
2021/01/07 06:43:13;;;;;;;48.38;27.10;;;3.40;74.40;;;;;;5013878;28;20746;-72
2021/01/07 06:45:38;;;;;;;52.58;28.55;;;3.40;74.50;;;;;;5013617;28;20397;-71
2021/01/07 06:48:04;;;;;;;48.50;27.80;;;3.40;74.10;;;;;;5013687;28;20567;-73
2021/01/07 06:50:35;;;;;;;56.72;30.13;;;3.50;73.00;;;;;;5010919;28;20458;-72
2021/01/07 06:53:03;;;;;;;50.63;28.25;;;3.40;73.70;;;;;;5013150;28;20388;-70
2021/01/07 06:55:28;;;;;;;53.33;28.80;;;3.40;73.80;;;;;;5013696;28;20471;-71
2021/01/07 06:57:55;;;;;;;51.67;28.05;;;3.40;74.50;;;;;;5013528;28;20468;-72
2021/01/07 07:00:23;;;;;;;54.03;28.70;;;3.40;74.90;;;;;;5013318;28;20407;-72
2021/01/07 07:03:03;;;;;;;54.50;28.67;;;3.40;74.00;;;;;;5014742;28;20806;-74
2021/01/07 07:05:36;;;;;;;54.60;28.67;;;3.40;73.50;;;;;;5013049;28;20451;-72
2021/01/07 07:08:10;;;;;;;52.63;28.48;;;3.30;74.60;;;;;;5013259;28;20415;-73
2021/01/07 07:10:38;;;;;;;47.90;27.48;;;3.30;75.30;;;;;;5014729;28;20385;-73
2021/01/07 07:13:19;;;;;;;47.65;26.63;;;3.30;74.30;;;;;;5017808;28;20381;-71
2021/01/07 07:15:49;;;;;;;49.37;26.00;;;3.30;73.70;;;;;;5018131;28;20389;-71
2021/01/07 07:18:25;;;;;;;51.22;26.33;;;3.40;72.40;;;;;;5018631;28;20750;-72
2021/01/07 07:20:51;;;;;;;47.85;25.80;;;3.30;74.20;;;;;;5018194;28;20483;-71
2021/01/07 07:23:21;;;;;;;41.85;23.52;;;3.30;74.30;;;;;;5018163;28;20475;-71
2021/01/07 07:25:49;;;;;;;40.57;23.17;;;3.30;72.50;;;;;;5013281;28;20770;-72
2021/01/07 07:28:17;;;;;;;37.70;21.67;;;3.30;72.30;;;;;;5012261;28;20416;-72
2021/01/07 07:30:45;;;;;;;40.03;22.73;;;3.30;71.10;;;;;;5011663;28;20400;-72
2021/01/07 07:33:10;;;;;;;43.28;22.00;;;3.30;71.40;;;;;;5012585;28;20870;-73
2021/01/07 07:35:43;;;;;;;41.37;22.80;;;3.30;71.10;;;;;;5013248;28;20389;-72
2021/01/07 07:38:11;;;;;;;40.30;22.92;;;3.30;72.00;;;;;;5005904;28;20482;-72
2021/01/07 07:40:39;;;;;;;39.47;21.38;;;3.20;72.90;;;;;;5012908;28;20802;-72
2021/01/07 07:43:06;;;;;;;36.85;21.52;;;3.30;72.20;;;;;;5011597;28;20403;-74
2021/01/07 07:45:33;;;;;;;40.17;21.90;;;3.30;72.10;;;;;;5016555;28;20417;-73
2021/01/07 07:48:01;;;;;;;39.17;21.58;;;3.30;71.20;;;;;;5011771;28;20462;-72
2021/01/07 07:50:29;;;;;;;39.83;21.77;;;3.40;70.70;;;;;;5012256;28;20400;-72
2021/01/07 07:53:08;;;;;;;34.88;20.33;;;3.40;70.40;;;;;;5012315;28;20476;-71
2021/01/07 07:55:38;;;;;;;38.87;19.87;;;3.50;70.20;;;;;;5013242;28;20385;-71
2021/01/07 07:58:09;;;;;;;35.80;19.80;;;3.50;70.00;;;;;;5020440;28;20394;-72
2021/01/07 08:00:35;;;;;;;34.17;19.40;;;3.50;70.60;;;;;;5021016;28;20405;-72
2021/01/07 08:03:01;;;;;;;34.00;18.45;;;3.50;70.10;;;;;;5013794;28;20397;-72
2021/01/07 08:05:27;;;;;;;34.07;19.40;;;3.50;69.00;;;;;;5010271;28;20774;-72
2021/01/07 08:07:54;;;;;;;33.90;19.43;;;3.40;69.20;;;;;;5011644;28;20851;-71
2021/01/07 08:10:20;;;;;;;38.95;19.80;;;3.40;71.20;;;;;;5012108;28;20963;-70
2021/01/07 08:12:46;;;;;;;36.65;21.58;;;3.40;72.80;;;;;;5015605;28;20408;-72
2021/01/07 08:15:25;;;;;;;37.45;21.60;;;3.40;72.70;;;;;;5014101;28;20400;-71
2021/01/07 08:17:50;;;;;;;43.00;21.97;;;3.50;72.40;;;;;;5011782;28;20451;-71
2021/01/07 08:20:23;;;;;;;45.05;23.60;;;3.40;73.70;;;;;;5011918;28;20436;-70
2021/01/07 08:22:49;;;;;;;40.95;23.27;;;3.50;73.60;;;;;;5011666;28;20408;-70
2021/01/07 08:25:24;;;;;;;39.63;22.63;;;3.40;74.40;;;;;;5010440;28;20913;-72
2021/01/07 08:27:55;;;;;;;43.77;23.67;;;3.40;75.30;;;;;;5011417;28;20842;-70
2021/01/07 08:30:21;;;;;;;46.63;24.00;;;3.40;75.20;;;;;;5010316;28;20389;-71
2021/01/07 08:32:49;;;;;;;42.10;23.65;;;3.50;75.40;;;;;;5011683;28;20826;-71
2021/01/07 08:35:16;;;;;;;38.00;21.88;;;3.60;74.00;;;;;;5011548;28;20448;-70
2021/01/07 08:37:43;;;;;;;39.08;22.08;;;3.70;70.40;;;;;;5011366;28;20758;-71
2021/01/07 08:40:09;;;;;;;36.20;21.30;;;3.70;69.20;;;;;;5011023;28;20400;-70
2021/01/07 08:42:39;;;;;;;35.40;20.67;;;3.70;70.40;;;;;;5011633;28;20488;-70
2021/01/07 08:45:06;;;;;;;34.70;21.00;;;3.70;69.60;;;;;;5011487;28;20403;-73
2021/01/07 08:47:32;;;;;;;37.33;22.63;;;3.70;70.30;;;;;;5011107;28;20456;-69
2021/01/07 08:50:11;;;;;;;40.17;21.77;;;3.70;70.10;;;;;;5010323;28;20428;-70
2021/01/07 08:52:54;;;;;;;38.92;22.08;;;3.80;70.80;;;;;;5010947;28;20397;-71
2021/01/07 08:55:20;;;;;;;37.10;21.53;;;3.90;68.10;;;;;;4990581;28;20449;-71
2021/01/07 08:57:46;;;;;;;36.67;21.15;;;3.90;65.40;;;;;;4991935;28;20418;-70
2021/01/07 09:00:18;;;;;;;38.15;21.40;;;3.90;65.50;;;;;;5010771;28;20454;-70
2021/01/07 09:02:44;;;;;;;36.13;20.40;;;3.80;66.00;;;;;;5016450;28;20456;-71
2021/01/07 09:05:10;;;;;;;39.42;23.33;;;3.80;65.80;;;;;;5016847;28;20392;-72
2021/01/07 09:07:36;;;;;;;36.60;22.13;;;3.90;66.70;;;;;;5015535;28;20411;-71
2021/01/07 09:10:02;;;;;;;38.47;21.23;;;3.90;65.40;;;;;;5016845;28;20453;-71
2021/01/07 09:12:27;;;;;;;35.08;20.42;;;3.90;66.90;;;;;;5016581;28;20392;-71
2021/01/07 09:15:05;;;;;;;35.30;20.98;;;4.00;64.70;;;;;;5012683;28;20396;-77
2021/01/07 09:17:48;;;;;;;33.88;20.75;;;4.10;65.20;;;;;;5010927;28;20583;-72
2021/01/07 09:20:16;;;;;;;35.47;21.45;;;4.10;64.10;;;;;;5009174;28;20393;-71
2021/01/07 09:22:42;;;;;;;32.60;20.30;;;4.10;64.20;;;;;;5010735;28;20395;-73
2021/01/07 09:25:09;;;;;;;35.10;20.63;;;4.00;65.10;;;;;;5010101;28;20415;-72
2021/01/07 09:27:35;;;;;;;34.60;21.42;;;4.10;66.10;;;;;;5009476;28;20511;-71
2021/01/07 09:30:00;;;;;;;31.58;19.00;;;4.00;65.30;;;;;;5009182;28;20487;-73
2021/01/07 09:32:26;;;;;;;34.90;18.83;;;4.00;64.80;;;;;;5010392;28;20506;-73
2021/01/07 09:34:52;;;;;;;33.42;19.80;;;4.00;64.60;;;;;;5010621;28;20392;-72
2021/01/07 09:37:22;;;;;;;31.00;18.93;;;4.00;64.80;;;;;;5009757;28;20476;-73
2021/01/07 09:39:49;;;;;;;28.58;17.50;;;3.90;65.70;;;;;;5009427;28;20391;-72
2021/01/07 09:42:17;;;;;;;27.38;16.98;;;3.90;64.90;;;;;;5010474;28;20407;-71
2021/01/07 09:44:42;;;;;;;28.83;18.20;;;3.90;64.60;;;;;;5010015;28;20425;-71
2021/01/07 09:47:08;;;;;;;33.10;18.77;;;3.90;65.60;;;;;;5009618;28;20517;-72
2021/01/07 09:49:35;;;;;;;29.83;18.63;;;3.90;66.80;;;;;;5012109;28;20399;-72
2021/01/07 09:52:00;;;;;;;31.63;18.48;;;3.80;66.80;;;;;;5013840;28;20460;-71
2021/01/07 09:54:26;;;;;;;30.95;18.10;;;3.90;67.00;;;;;;5013032;28;20822;-74
2021/01/07 09:56:54;;;;;;;32.50;20.00;;;3.80;67.60;;;;;;5010041;28;20755;-73
2021/01/07 09:59:21;;;;;;;33.42;18.83;;;3.80;68.30;;;;;;5010273;28;20826;-71
2021/01/07 10:01:51;;;;;;;31.73;18.10;;;3.90;67.50;;;;;;5009657;28;20924;-72
2021/01/07 10:04:16;;;;;;;30.92;19.08;;;3.90;68.20;;;;;;5010023;28;20455;-72
2021/01/07 10:06:42;;;;;;;31.23;19.23;;;3.90;67.70;;;;;;5009402;28;20839;-71
2021/01/07 10:09:08;;;;;;;34.35;19.63;;;3.90;66.20;;;;;;5009338;28;20419;-74
2021/01/07 10:11:34;;;;;;;37.93;21.20;;;3.90;67.60;;;;;;5014039;28;20492;-72
2021/01/07 10:13:59;;;;;;;30.10;18.63;;;3.90;68.40;;;;;;5013466;28;20428;-71
2021/01/07 10:16:25;;;;;;;25.85;16.02;;;3.90;67.00;;;;;;5014491;28;20507;-71
2021/01/07 10:18:50;;;;;;;28.27;17.50;;;4.00;63.90;;;;;;5018655;28;20631;-73
2021/01/07 10:21:21;;;;;;;27.50;16.70;;;3.90;66.10;;;;;;5017700;28;20485;-72
2021/01/07 10:23:48;;;;;;;26.50;16.10;;;3.90;66.80;;;;;;5017752;28;20400;-72
2021/01/07 10:26:17;;;;;;;31.90;17.92;;;4.00;65.70;;;;;;5015721;28;20762;-71
2021/01/07 10:28:44;;;;;;;23.83;15.30;;;4.00;65.50;;;;;;5018581;28;20410;-73
2021/01/07 10:31:10;;;;;;;21.95;14.52;;;4.10;64.00;;;;;;5008726;28;20387;-72
2021/01/07 10:33:37;;;;;;;25.58;15.18;;;4.00;63.10;;;;;;5000492;28;20398;-72
2021/01/07 10:36:03;;;;;;;22.87;15.07;;;4.10;61.10;;;;;;5014250;28;20396;-72
2021/01/07 10:38:31;;;;;;;23.02;14.90;;;4.00;62.80;;;;;;5019285;28;20498;-72
2021/01/07 10:41:00;;;;;;;27.83;16.43;;;4.00;63.90;;;;;;5015414;28;20776;-71
2021/01/07 10:43:28;;;;;;;26.38;16.73;;;4.00;65.60;;;;;;5013607;28;20425;-71
2021/01/07 10:45:54;;;;;;;26.42;16.48;;;4.00;65.60;;;;;;5014183;28;20874;-71
2021/01/07 10:48:22;;;;;;;30.42;18.30;;;4.10;65.50;;;;;;5013160;28;20423;-71
2021/01/07 10:50:52;;;;;;;27.55;16.55;;;4.10;66.00;;;;;;5012972;28;20416;-75
2021/01/07 10:53:45;;;;;;;26.25;15.70;;;4.10;63.90;;;;;;5012453;28;20809;-70
2021/01/07 10:56:17;;;;;;;23.75;15.85;;;4.10;62.50;;;;;;5001059;28;20432;-73
2021/01/07 10:59:16;;;;;;;27.25;16.50;;;4.10;63.80;;;;;;5012187;28;20507;-72
2021/01/07 11:01:57;;;;;;;25.42;15.98;;;4.10;64.10;;;;;;5013810;28;20901;-73
2021/01/07 11:04:41;;;;;;;25.03;16.23;;;4.10;63.00;;;;;;5012895;28;20404;-72
2021/01/07 11:07:30;;;;;;;32.35;18.73;;;4.10;64.10;;;;;;5013211;28;21149;-72
2021/01/07 11:10:06;;;;;;;25.05;15.85;;;4.10;65.40;;;;;;5013299;28;20432;-72
2021/01/07 11:12:40;;;;;;;25.50;15.85;;;4.20;62.70;;;;;;5013324;28;20755;-73
2021/01/07 11:15:11;;;;;;;23.33;14.73;;;4.30;62.20;;;;;;4994764;28;20383;-74
2021/01/07 11:17:45;;;;;;;23.17;15.10;;;4.30;61.10;;;;;;4997997;28;20403;-73
2021/01/07 11:20:12;;;;;;;24.55;15.48;;;4.30;61.10;;;;;;4994833;28;20464;-72
2021/01/07 11:22:38;;;;;;;24.77;16.00;;;4.20;61.20;;;;;;5003473;28;20397;-73
2021/01/07 11:25:04;;;;;;;27.88;16.55;;;4.20;62.80;;;;;;5014084;28;20957;-74
2021/01/07 11:27:31;;;;;;;24.53;15.63;;;4.10;65.00;;;;;;5014806;28;20413;-72
2021/01/07 11:30:00;;;;;;;27.65;17.35;;;4.20;63.50;;;;;;5013640;28;20456;-75
2021/01/07 11:32:27;;;;;;;26.00;15.93;;;4.40;63.90;;;;;;5014076;28;20431;-74
2021/01/07 11:34:54;;;;;;;27.67;17.17;;;4.60;59.60;;;;;;5014145;28;20416;-74
2021/01/07 11:37:40;;;;;;;28.33;16.80;;;4.70;59.20;;;;;;5013012;28;20404;-71
2021/01/07 11:40:07;;;;;;;28.25;18.15;;;4.80;58.50;;;;;;5011621;28;20492;-71
2021/01/07 11:42:36;;;;;;;26.95;17.50;;;4.70;59.30;;;;;;5012137;28;20432;-70
2021/01/07 11:45:12;;;;;;;30.50;18.63;;;4.80;59.10;;;;;;5012679;28;20381;-71
2021/01/07 11:47:52;;;;;;;29.73;17.25;;;4.80;59.30;;;;;;5010867;28;20506;-71
2021/01/07 11:50:19;;;;;;;33.35;18.63;;;4.80;58.60;;;;;;5012224;28;20401;-71
2021/01/07 11:52:45;;;;;;;32.20;19.60;;;4.90;57.80;;;;;;4993110;28;20390;-72
2021/01/07 11:55:12;;;;;;;30.45;18.98;;;4.80;58.60;;;;;;4996875;28;20464;-71
2021/01/07 11:57:39;;;;;;;34.28;19.95;;;4.80;59.60;;;;;;5012415;28;20758;-71
2021/01/07 12:00:11;;;;;;;36.33;21.65;;;4.70;62.30;;;;;;5012519;28;20393;-72
2021/01/07 12:02:38;;;;;;;35.35;21.33;;;4.70;62.10;;;;;;5010847;28;21093;-71
2021/01/07 12:05:06;;;;;;;34.50;21.08;;;4.80;61.20;;;;;;5012163;28;20411;-72
2021/01/07 12:07:50;;;;;;;38.08;20.35;;;4.80;61.30;;;;;;5011796;28;20405;-71
2021/01/07 12:10:17;;;;;;;37.97;20.90;;;4.80;59.90;;;;;;5011170;28;20961;-73
2021/01/07 12:13:07;;;;;;;35.43;21.77;;;4.70;62.40;;;;;;5007628;28;20435;-73
2021/01/07 12:15:36;;;;;;;35.33;21.08;;;4.80;61.60;;;;;;5004731;28;20404;-72
2021/01/07 12:18:03;;;;;;;31.08;19.50;;;4.80;61.60;;;;;;5011948;28;20393;-72
2021/01/07 12:20:29;;;;;;;32.28;19.70;;;4.80;62.50;;;;;;5012403;28;20417;-72
2021/01/07 12:22:55;;;;;;;26.45;16.30;;;4.80;61.40;;;;;;5013100;28;20546;-71
2021/01/07 12:25:22;;;;;;;22.70;15.10;;;4.90;58.70;;;;;;5012753;28;20957;-73
2021/01/07 12:27:48;;;;;;;22.70;15.23;;;4.90;59.50;;;;;;5012331;28;20470;-71
2021/01/07 12:30:17;;;;;;;27.15;16.27;;;4.80;60.30;;;;;;5011259;28;20388;-72
2021/01/07 12:32:50;;;;;;;27.80;17.00;;;4.70;61.90;;;;;;5010495;28;20958;-72
2021/01/07 12:35:31;;;;;;;24.30;15.75;;;4.70;63.70;;;;;;5011548;28;20407;-72
2021/01/07 12:38:03;;;;;;;21.50;15.60;;;4.70;63.00;;;;;;5011042;28;20594;-71
2021/01/07 12:40:34;;;;;;;24.67;15.55;;;4.80;62.10;;;;;;5011210;28;20442;-72